createdAt,value
2022-08-28T00:00:52.507Z,29.40
2022-08-28T00:03:39.445Z,27.92
2022-08-28T00:06:19.436Z,28.90
2022-08-28T00:09:14.454Z,29.55
2022-08-28T00:12:01.446Z,31.20
2022-08-28T00:14:41.440Z,29.02
2022-08-28T00:17:35.445Z,27.70
2022-08-28T00:20:27.454Z,27.95
2022-08-28T00:23:00.557Z,28.90
2022-08-28T00:25:47.458Z,28.13
2022-08-28T00:28:24.304Z,29.17
2022-08-28T00:31:19.517Z,28.85
2022-08-28T00:34:09.460Z,29.55
2022-08-28T00:36:44.560Z,27.73
2022-08-28T00:39:31.453Z,28.35
2022-08-28T00:42:11.475Z,27.88
2022-08-28T00:44:58.464Z,29.20
2022-08-28T00:47:38.472Z,28.48
2022-08-28T00:50:36.467Z,27.35
2022-08-28T00:53:25.346Z,27.58
2022-08-28T00:56:13.141Z,26.60
2022-08-28T00:59:04.466Z,28.25
2022-08-28T01:01:45.574Z,29.05
2022-08-28T01:04:44.464Z,27.83
2022-08-28T01:07:38.499Z,29.20
2022-08-28T01:10:28.476Z,26.92
2022-08-28T01:13:02.550Z,26.35
2022-08-28T01:15:49.525Z,27.38
2022-08-28T01:18:30.473Z,26.98
2022-08-28T01:21:43.495Z,27.42
2022-08-28T01:24:31.475Z,28.63
2022-08-28T01:27:04.563Z,28.33
2022-08-28T01:29:51.471Z,27.98
2022-08-28T01:32:44.586Z,27.80
2022-08-28T01:35:35.492Z,28.77
2022-08-28T01:38:08.628Z,27.67
2022-08-28T01:40:59.501Z,28.63
2022-08-28T01:43:33.580Z,27.67
2022-08-28T01:46:20.591Z,25.92
2022-08-28T01:48:57.005Z,26.65
2022-08-28T01:51:43.498Z,25.90
2022-08-28T01:54:17.595Z,27.35
2022-08-28T01:57:04.499Z,28.90
2022-08-28T01:59:37.649Z,26.23
2022-08-28T02:02:24.502Z,25.85
2022-08-28T02:05:04.511Z,27.00
2022-08-28T02:07:51.520Z,28.15
2022-08-28T02:10:33.514Z,28.67
2022-08-28T02:13:27.531Z,26.02
2022-08-28T02:16:16.560Z,25.98
2022-08-28T02:18:57.533Z,25.35
2022-08-28T02:21:44.523Z,28.52
2022-08-28T02:24:24.505Z,28.00
2022-08-28T02:27:11.533Z,27.13
2022-08-28T02:29:44.681Z,27.23
2022-08-28T02:32:39.525Z,26.98
2022-08-28T02:35:27.532Z,27.45
2022-08-28T02:38:01.569Z,26.60
2022-08-28T02:40:48.517Z,27.35
2022-08-28T02:43:21.604Z,28.40
2022-08-28T02:46:09.587Z,24.85
2022-08-28T02:48:45.700Z,27.75
2022-08-28T02:51:32.559Z,28.60
2022-08-28T02:54:06.615Z,26.20
2022-08-28T02:56:53.535Z,26.70
2022-08-28T02:59:27.676Z,26.98
2022-08-28T03:02:14.611Z,27.35
2022-08-28T03:04:48.472Z,28.75
2022-08-28T03:07:35.617Z,25.75
2022-08-28T03:10:08.742Z,25.98
2022-08-28T03:12:55.590Z,27.63
2022-08-28T03:15:35.606Z,26.40
2022-08-28T03:18:29.601Z,26.52
2022-08-28T03:21:24.566Z,27.15
2022-08-28T03:24:11.581Z,26.90
2022-08-28T03:26:48.630Z,26.90
2022-08-28T03:29:35.575Z,26.52
2022-08-28T03:32:08.699Z,27.67
2022-08-28T03:34:56.566Z,28.27
2022-08-28T03:37:36.608Z,29.38
2022-08-28T03:40:23.668Z,26.42
2022-08-28T03:43:03.583Z,26.92
2022-08-28T03:46:19.091Z,29.02
2022-08-28T03:49:14.611Z,28.10
2022-08-28T03:52:01.597Z,26.27
2022-08-28T03:54:34.699Z,26.50
2022-08-28T03:57:29.634Z,27.08
2022-08-28T04:00:09.583Z,28.15
2022-08-28T04:03:03.655Z,27.48
2022-08-28T04:05:52.610Z,26.05
2022-08-28T04:08:27.343Z,27.60
2022-08-28T04:11:14.614Z,25.65
2022-08-28T04:13:54.617Z,25.15
2022-08-28T04:16:49.699Z,25.90
2022-08-28T04:19:36.623Z,27.63
2022-08-28T04:22:18.293Z,26.65
2022-08-28T04:25:12.617Z,25.15
2022-08-28T04:28:02.655Z,26.58
2022-08-28T04:30:42.609Z,26.73
2022-08-28T04:33:37.618Z,26.70
2022-08-28T04:36:24.608Z,25.40
2022-08-28T04:39:04.603Z,25.35
2022-08-28T04:41:58.612Z,24.42
2022-08-28T04:44:46.668Z,25.17
2022-08-28T04:47:26.614Z,26.00
2022-08-28T04:50:22.614Z,25.00
2022-08-28T04:53:18.610Z,24.35
2022-08-28T04:56:05.646Z,23.58
2022-08-28T04:58:40.708Z,24.60
2022-08-28T05:01:30.672Z,26.00
2022-08-28T05:04:18.615Z,24.48
2022-08-28T05:07:14.618Z,25.02
2022-08-28T05:10:08.632Z,23.85
2022-08-28T05:13:04.614Z,27.00
2022-08-28T05:15:55.702Z,24.25
2022-08-28T05:18:29.700Z,24.38
2022-08-28T05:21:22.621Z,27.08
2022-08-28T05:23:59.776Z,26.00
2022-08-28T05:26:48.766Z,24.77
2022-08-28T05:29:29.668Z,22.30
2022-08-28T05:32:23.633Z,24.42
2022-08-28T05:35:10.636Z,24.65
2022-08-28T05:37:50.625Z,25.50
2022-08-28T05:40:44.647Z,23.50
2022-08-28T05:43:32.639Z,23.38
2022-08-28T05:46:11.840Z,20.73
2022-08-28T05:48:58.634Z,24.17
2022-08-28T05:51:40.629Z,22.95
2022-08-28T05:54:29.154Z,22.98
2022-08-28T05:57:09.642Z,21.88
2022-08-28T06:00:03.651Z,23.67
2022-08-28T06:02:51.644Z,22.45
2022-08-28T06:05:25.754Z,24.00
2022-08-28T06:08:12.667Z,22.90
2022-08-28T06:10:50.936Z,23.13
2022-08-28T06:13:40.814Z,24.95
2022-08-28T06:16:22.748Z,23.98
2022-08-28T06:19:09.640Z,22.83
2022-08-28T06:21:51.684Z,22.25
2022-08-28T06:24:46.649Z,22.77
2022-08-28T06:27:43.660Z,23.67
2022-08-28T06:30:40.060Z,22.55
2022-08-28T06:33:35.668Z,21.85
2022-08-28T06:36:24.720Z,23.63
2022-08-28T06:38:58.482Z,22.15
2022-08-28T06:41:49.664Z,20.63
2022-08-28T06:44:34.712Z,22.15
2022-08-28T06:47:28.708Z,25.00
2022-08-28T06:50:15.655Z,23.95
2022-08-28T06:52:48.753Z,24.42
2022-08-28T06:55:35.687Z,20.58
2022-08-28T06:58:08.760Z,19.65
2022-08-28T07:01:02.856Z,20.63
2022-08-28T07:03:44.380Z,21.05
2022-08-28T07:06:36.997Z,21.77
2022-08-28T07:09:12.757Z,21.88
2022-08-28T07:11:59.683Z,19.52
2022-08-28T07:14:32.763Z,20.73
2022-08-28T07:17:19.672Z,21.40
2022-08-28T07:19:52.777Z,21.83
2022-08-28T07:22:39.696Z,22.90
2022-08-28T07:25:21.709Z,20.90
2022-08-28T07:28:08.749Z,24.13
2022-08-28T07:30:41.805Z,24.38
2022-08-28T07:33:28.706Z,20.23
2022-08-28T07:36:03.477Z,20.30
2022-08-28T07:38:50.707Z,22.25
2022-08-28T07:41:34.700Z,20.08
2022-08-28T07:44:47.716Z,19.92
2022-08-28T07:47:45.703Z,19.23
2022-08-28T07:50:32.704Z,22.15
2022-08-28T07:53:06.287Z,21.98
2022-08-28T07:55:52.705Z,21.83
2022-08-28T07:58:33.719Z,17.75
2022-08-28T08:01:27.766Z,20.33
2022-08-28T08:04:26.728Z,21.05
2022-08-28T08:07:14.720Z,20.05
2022-08-28T08:09:49.826Z,20.42
2022-08-28T08:12:36.737Z,18.45
2022-08-28T08:15:11.838Z,18.15
2022-08-28T08:17:58.736Z,18.63
2022-08-28T08:20:31.812Z,18.52
2022-08-28T08:23:18.730Z,19.35
2022-08-28T08:26:06.284Z,19.38
2022-08-28T08:28:53.743Z,18.13
2022-08-28T08:31:29.925Z,15.98
2022-08-28T08:34:16.738Z,15.93
2022-08-28T08:36:56.740Z,18.88
2022-08-28T08:39:50.735Z,17.33
2022-08-28T08:42:40.734Z,16.92
2022-08-28T08:45:27.751Z,17.75
2022-08-28T08:48:20.739Z,17.92
2022-08-28T08:50:55.426Z,16.35
2022-08-28T08:53:52.735Z,18.88
2022-08-28T08:56:34.896Z,16.48
2022-08-28T08:59:28.746Z,17.38
2022-08-28T09:02:12.197Z,17.15
2022-08-28T09:05:11.755Z,16.52
2022-08-28T09:08:08.818Z,16.88
2022-08-28T09:11:13.774Z,18.38
2022-08-28T09:14:09.755Z,17.38
2022-08-28T09:16:46.859Z,19.48
2022-08-28T09:19:33.759Z,16.75
2022-08-28T09:22:13.779Z,16.50
2022-08-28T09:25:07.762Z,17.02
2022-08-28T09:27:59.760Z,17.15
2022-08-28T09:30:44.818Z,17.33
2022-08-28T09:33:45.747Z,18.75
2022-08-28T09:36:48.768Z,19.23
2022-08-28T09:39:40.766Z,17.45
2022-08-28T09:42:53.813Z,18.35
2022-08-28T09:45:47.778Z,18.10
2022-08-28T09:48:46.775Z,18.20
2022-08-28T09:51:38.680Z,17.92
2022-08-28T09:54:42.789Z,18.67
2022-08-28T09:57:15.866Z,19.60
2022-08-28T10:00:03.778Z,17.85
2022-08-28T10:03:07.003Z,17.98
2022-08-28T10:06:10.783Z,19.10
2022-08-28T10:09:15.790Z,19.02
2022-08-28T10:12:18.786Z,17.67
2022-08-28T10:15:14.875Z,19.60
2022-08-28T10:18:37.804Z,18.13
2022-08-28T10:21:58.813Z,19.05
2022-08-28T10:25:10.781Z,18.10
2022-08-28T10:28:09.953Z,18.95
2022-08-28T10:30:56.929Z,18.17
2022-08-28T10:33:56.829Z,17.98
2022-08-28T10:36:36.991Z,17.90
2022-08-28T10:39:48.801Z,22.27
2022-08-28T10:42:36.901Z,18.75
2022-08-28T10:45:29.808Z,17.92
2022-08-28T10:48:28.820Z,17.88
2022-08-28T10:51:57.795Z,18.27
2022-08-28T10:54:59.830Z,20.02
2022-08-28T10:57:55.808Z,21.10
2022-08-28T11:00:50.847Z,19.35
2022-08-28T11:03:58.825Z,18.50
2022-08-28T11:06:58.832Z,18.80
2022-08-28T11:09:52.823Z,17.60
2022-08-28T11:12:32.810Z,17.38
2022-08-28T11:16:00.825Z,17.85
2022-08-28T11:19:13.857Z,16.70
2022-08-28T11:21:57.072Z,19.20
2022-08-28T11:25:04.272Z,19.60
2022-08-28T11:27:42.901Z,17.58
2022-08-28T11:30:47.905Z,16.52
2022-08-28T11:34:02.858Z,17.65
2022-08-28T11:36:49.860Z,17.65
2022-08-28T11:39:29.850Z,21.10
2022-08-28T11:42:23.847Z,23.20
2022-08-28T11:45:11.852Z,20.73
2022-08-28T11:47:52.282Z,20.83
2022-08-28T11:50:57.843Z,19.50
2022-08-28T11:54:13.858Z,22.13
2022-08-28T11:57:22.987Z,20.70
2022-08-28T12:00:24.872Z,20.38
2022-08-28T12:03:16.865Z,19.05
2022-08-28T12:06:01.960Z,20.88
2022-08-28T12:08:51.849Z,19.55
2022-08-28T12:11:53.873Z,17.67
2022-08-28T12:15:13.867Z,18.48
2022-08-28T12:18:12.883Z,21.50
2022-08-28T12:20:57.933Z,21.70
2022-08-28T12:23:50.848Z,18.38
2022-08-28T12:26:32.145Z,17.55
2022-08-28T12:29:44.861Z,18.83
2022-08-28T12:32:46.878Z,21.98
2022-08-28T12:35:34.874Z,22.88
2022-08-28T12:38:11.961Z,24.80
2022-08-28T12:40:59.882Z,22.27
2022-08-28T12:43:47.080Z,23.20
2022-08-28T12:46:37.924Z,18.67
2022-08-28T12:49:47.860Z,20.70
2022-08-28T12:52:41.888Z,17.48
2022-08-28T12:55:29.871Z,17.23
2022-08-28T12:58:09.915Z,16.73
2022-08-28T13:01:10.074Z,20.33
2022-08-28T13:04:07.911Z,22.13
2022-08-28T13:07:07.897Z,22.77
2022-08-28T13:09:41.953Z,21.00
2022-08-28T13:12:56.235Z,22.55
2022-08-28T13:15:55.913Z,19.85
2022-08-28T13:18:59.905Z,20.13
2022-08-28T13:22:35.887Z,22.85
2022-08-28T13:25:10.050Z,20.80
2022-08-28T13:28:09.911Z,22.38
2022-08-28T13:30:49.977Z,22.58
2022-08-28T13:33:43.906Z,21.30
2022-08-28T13:36:39.930Z,19.75
2022-08-28T13:39:34.913Z,22.50
2022-08-28T13:42:24.930Z,20.42
2022-08-28T13:45:00.016Z,20.90
2022-08-28T13:47:46.991Z,19.52
2022-08-28T13:50:26.944Z,23.38
2022-08-28T13:53:20.913Z,20.30
2022-08-28T13:56:08.946Z,20.95
2022-08-28T13:58:41.997Z,20.08
2022-08-28T14:01:51.067Z,21.90
2022-08-28T14:04:24.009Z,23.02
2022-08-28T14:07:10.937Z,22.10
2022-08-28T14:09:45.172Z,20.83
2022-08-28T14:12:33.612Z,19.33
2022-08-28T14:15:14.956Z,19.63
2022-08-28T14:18:01.945Z,21.00
2022-08-28T14:20:35.010Z,20.75
2022-08-28T14:23:21.941Z,20.85
2022-08-28T14:26:01.943Z,19.33
2022-08-28T14:28:48.970Z,23.40
2022-08-28T14:31:28.991Z,19.88
2022-08-28T14:34:28.961Z,22.00
2022-08-28T14:37:15.940Z,20.92
2022-08-28T14:39:50.536Z,22.35
2022-08-28T14:42:36.952Z,19.45
2022-08-28T14:45:10.053Z,24.48
2022-08-28T14:47:56.989Z,19.52
2022-08-28T14:50:36.967Z,21.80
2022-08-28T14:53:30.968Z,18.95
2022-08-28T14:56:18.967Z,18.05
2022-08-28T14:58:52.089Z,18.35
2022-08-28T15:01:43.992Z,18.58
2022-08-28T15:04:22.755Z,17.83
2022-08-28T15:07:13.983Z,18.65
2022-08-28T15:09:55.963Z,19.63
2022-08-28T15:12:49.966Z,17.25
2022-08-28T15:15:48.978Z,19.17
2022-08-28T15:18:43.947Z,16.88
2022-08-28T15:21:44.983Z,18.83
2022-08-28T15:24:34.974Z,17.42
2022-08-28T15:27:15.981Z,21.33
2022-08-28T15:30:10.019Z,20.50
2022-08-28T15:33:05.008Z,18.95
2022-08-28T15:35:51.981Z,19.38
2022-08-28T15:38:31.978Z,21.17
2022-08-28T15:41:31.979Z,23.20
2022-08-28T15:44:18.992Z,24.85
2022-08-28T15:47:01.306Z,21.50
2022-08-28T15:49:52.105Z,24.42
2022-08-28T15:52:25.201Z,21.95
2022-08-28T15:55:12.997Z,19.98
2022-08-28T15:57:46.763Z,16.70
2022-08-28T16:00:34.045Z,21.30
2022-08-28T16:03:14.088Z,19.13
2022-08-28T16:06:08.008Z,18.65
2022-08-28T16:08:56.005Z,19.23
2022-08-28T16:11:32.171Z,31.52
2022-08-28T16:14:21.237Z,18.90
2022-08-28T16:16:54.288Z,19.40
2022-08-28T16:19:41.033Z,17.33
2022-08-28T16:22:16.428Z,20.75
2022-08-28T16:25:04.038Z,18.50
2022-08-28T16:27:37.082Z,19.13
2022-08-28T16:30:24.509Z,17.90
2022-08-28T16:32:58.111Z,18.42
2022-08-28T16:35:54.911Z,19.05
2022-08-28T16:38:30.550Z,18.15
2022-08-28T16:41:23.021Z,18.92
2022-08-28T16:44:04.024Z,18.67
2022-08-28T16:46:58.117Z,17.33
2022-08-28T16:49:45.022Z,18.08
2022-08-28T16:52:26.042Z,19.52
2022-08-28T16:55:15.059Z,18.10
2022-08-28T16:57:55.067Z,16.83
2022-08-28T17:00:44.519Z,16.95
2022-08-28T17:03:26.170Z,18.02
2022-08-28T17:06:18.041Z,19.30
2022-08-28T17:08:56.469Z,16.95
2022-08-28T17:11:44.051Z,17.92
2022-08-28T17:14:18.152Z,18.20
2022-08-28T17:17:05.029Z,18.98
2022-08-28T17:19:39.120Z,19.13
2022-08-28T17:22:38.050Z,18.42
2022-08-28T17:25:17.733Z,21.88
2022-08-28T17:28:04.057Z,20.88
2022-08-28T17:30:44.060Z,20.05
2022-08-28T17:33:38.058Z,17.95
2022-08-28T17:36:34.307Z,19.00
2022-08-28T17:39:22.070Z,21.20
2022-08-28T17:42:02.118Z,17.52
2022-08-28T17:44:56.069Z,19.05
2022-08-28T17:47:43.100Z,18.65
2022-08-28T17:50:17.170Z,21.13
2022-08-28T17:53:04.076Z,19.00
2022-08-28T17:55:37.212Z,19.35
2022-08-28T17:58:24.093Z,19.90
2022-08-28T18:00:58.374Z,18.80
2022-08-28T18:03:53.418Z,19.98
2022-08-28T18:06:27.167Z,17.42
2022-08-28T18:09:15.129Z,19.05
2022-08-28T18:11:49.288Z,20.17
2022-08-28T18:14:36.085Z,18.92
2022-08-28T18:17:18.100Z,18.45
2022-08-28T18:20:06.084Z,21.80
2022-08-28T18:22:46.094Z,21.02
2022-08-28T18:25:50.859Z,20.92
2022-08-28T18:28:36.063Z,20.67
2022-08-28T18:31:30.162Z,23.17
2022-08-28T18:34:25.070Z,22.73
2022-08-28T18:37:12.092Z,20.25
2022-08-28T18:39:53.097Z,19.42
2022-08-28T18:42:41.105Z,21.85
2022-08-28T18:45:22.115Z,21.38
2022-08-28T18:48:16.089Z,21.15
2022-08-28T18:51:03.101Z,22.88
2022-08-28T18:53:36.183Z,23.52
2022-08-28T18:56:23.113Z,21.88
2022-08-28T18:58:58.220Z,20.83
2022-08-28T19:01:45.183Z,21.35
2022-08-28T19:04:18.408Z,21.55
2022-08-28T19:07:05.099Z,21.20
2022-08-28T19:09:38.277Z,21.55
2022-08-28T19:12:25.105Z,23.15
2022-08-28T19:15:02.210Z,26.23
2022-08-28T19:17:49.140Z,23.65
2022-08-28T19:20:27.407Z,24.48
2022-08-28T19:23:17.381Z,25.17
2022-08-28T19:25:58.118Z,22.45
2022-08-28T19:28:47.164Z,22.27
2022-08-28T19:31:20.486Z,22.67
2022-08-28T19:34:14.144Z,22.55
2022-08-28T19:37:01.144Z,24.02
2022-08-28T19:39:35.207Z,22.67
2022-08-28T19:42:22.142Z,23.25
2022-08-28T19:44:59.950Z,24.25
2022-08-28T19:47:47.155Z,22.65
2022-08-28T19:50:21.284Z,23.63
2022-08-28T19:53:08.144Z,23.17
2022-08-28T19:55:48.144Z,23.33
2022-08-28T19:58:42.126Z,23.17
2022-08-28T20:01:29.182Z,22.15
2022-08-28T20:04:03.227Z,23.25
2022-08-28T20:06:52.176Z,24.73
2022-08-28T20:09:25.257Z,23.10
2022-08-28T20:12:12.137Z,23.38
2022-08-28T20:14:45.645Z,25.65
2022-08-28T20:17:32.182Z,23.80
2022-08-28T20:20:08.345Z,22.20
2022-08-28T20:22:55.162Z,23.75
2022-08-28T20:25:29.288Z,24.55
2022-08-28T20:28:16.303Z,23.67
2022-08-28T20:30:53.382Z,24.50
2022-08-28T20:33:41.182Z,24.80
2022-08-28T20:36:22.168Z,25.40
2022-08-28T20:39:13.168Z,25.92
2022-08-28T20:41:47.278Z,24.98
2022-08-28T20:44:34.157Z,25.05
2022-08-28T20:47:07.252Z,26.48
2022-08-28T20:49:55.156Z,25.70
2022-08-28T20:52:36.195Z,26.13
2022-08-28T20:55:23.178Z,25.50
2022-08-28T20:57:56.270Z,25.23
2022-08-28T21:00:43.201Z,24.45
2022-08-28T21:03:16.275Z,24.90
2022-08-28T21:06:03.183Z,25.85
2022-08-28T21:08:36.270Z,24.23
2022-08-28T21:11:24.175Z,24.85
2022-08-28T21:13:58.296Z,25.67
2022-08-28T21:16:46.208Z,25.58
2022-08-28T21:19:21.683Z,25.98
2022-08-28T21:22:08.190Z,26.15
2022-08-28T21:24:42.300Z,26.85
2022-08-28T21:27:29.202Z,28.25
2022-08-28T21:30:06.320Z,26.90
2022-08-28T21:32:55.212Z,27.33
2022-08-28T21:35:49.209Z,27.65
2022-08-28T21:38:36.215Z,26.92
2022-08-28T21:41:14.096Z,27.67
2022-08-28T21:44:02.194Z,26.52
2022-08-28T21:46:42.217Z,26.88
2022-08-28T21:49:36.182Z,26.52
2022-08-28T21:52:27.209Z,26.20
2022-08-28T21:55:09.308Z,26.58
2022-08-28T21:57:56.240Z,27.23
2022-08-28T22:00:30.547Z,26.20
2022-08-28T22:03:17.255Z,25.83
2022-08-28T22:05:52.308Z,26.08
2022-08-28T22:08:39.215Z,25.70
2022-08-28T22:11:25.183Z,25.58
2022-08-28T22:14:12.233Z,25.90
2022-08-28T22:16:45.381Z,26.13
2022-08-28T22:19:32.226Z,26.80
2022-08-28T22:22:31.213Z,26.60
2022-08-28T22:25:18.241Z,27.25
2022-08-28T22:27:51.288Z,26.65
2022-08-28T22:30:38.240Z,25.77
2022-08-28T22:33:13.388Z,27.60
2022-08-28T22:36:00.217Z,26.30
2022-08-28T22:38:33.319Z,26.40
2022-08-28T22:41:20.257Z,26.38
2022-08-28T22:44:04.254Z,27.45
2022-08-28T22:46:58.233Z,27.15
2022-08-28T22:49:45.247Z,27.23
2022-08-28T22:52:18.353Z,26.95
2022-08-28T22:55:05.512Z,29.55
2022-08-28T22:57:40.478Z,27.40
2022-08-28T23:00:32.269Z,29.58
2022-08-28T23:03:06.765Z,27.65
2022-08-28T23:05:53.260Z,28.55
2022-08-28T23:08:29.648Z,29.63
2022-08-28T23:11:18.276Z,29.15
2022-08-28T23:13:51.362Z,30.13
2022-08-28T23:16:38.307Z,29.10
2022-08-28T23:19:13.712Z,28.63
2022-08-28T23:22:00.283Z,28.65
2022-08-28T23:24:33.340Z,27.88
2022-08-28T23:27:35.865Z,29.05
2022-08-28T23:30:18.268Z,29.42
2022-08-28T23:33:12.277Z,28.45
2022-08-28T23:36:06.272Z,29.05
2022-08-28T23:39:00.302Z,29.20
2022-08-28T23:41:55.286Z,27.92
2022-08-28T23:44:49.271Z,28.52
2022-08-28T23:47:43.256Z,27.77
2022-08-28T23:50:30.278Z,28.35
2022-08-28T23:53:10.272Z,27.40
2022-08-28T23:55:57.291Z,29.98
2022-08-28T23:58:33.368Z,28.27
